createdAt,value
2023-01-19T00:04:09.530Z,24.53
2023-01-19T00:09:14.458Z,20.73
2023-01-19T00:14:17.941Z,25.53
2023-01-19T00:19:21.364Z,22.07
2023-01-19T00:24:26.167Z,20.43
2023-01-19T00:29:34.365Z,26.10
2023-01-19T00:34:39.609Z,24.23
2023-01-19T00:39:44.996Z,22.07
2023-01-19T00:44:48.711Z,23.70
2023-01-19T00:49:52.382Z,20.33
2023-01-19T00:54:57.465Z,17.93
2023-01-19T01:00:00.797Z,20.37
2023-01-19T01:05:04.200Z,21.20
2023-01-19T01:10:10.847Z,30.60
2023-01-19T01:15:15.785Z,24.77
2023-01-19T01:20:21.924Z,16.63
2023-01-19T01:25:28.010Z,24.73
2023-01-19T01:30:31.847Z,20.60
2023-01-19T01:35:35.610Z,26.17
2023-01-19T01:40:42.225Z,22.73
2023-01-19T01:45:46.395Z,19.73
2023-01-19T01:51:11.941Z,22.30
2023-01-19T01:56:24.315Z,19.17
2023-01-19T02:01:45.336Z,20.50
2023-01-19T02:07:06.745Z,18.27
2023-01-19T02:12:29.177Z,19.67
2023-01-19T02:17:33.059Z,27.77
2023-01-19T02:22:59.982Z,23.27
2023-01-19T02:28:05.828Z,21.67
2023-01-19T02:33:09.697Z,20.13
2023-01-19T02:38:14.709Z,26.20
2023-01-19T02:43:20.652Z,22.87
2023-01-19T02:48:24.043Z,20.40
2023-01-19T02:53:53.662Z,22.10
2023-01-19T02:59:07.743Z,22.50
2023-01-19T03:04:19.670Z,17.00
2023-01-19T03:09:29.942Z,18.20
2023-01-19T03:14:40.160Z,21.27
2023-01-19T03:19:47.834Z,26.30
2023-01-19T03:24:54.743Z,24.60
2023-01-19T03:30:02.847Z,20.30
2023-01-19T03:35:11.951Z,19.00
2023-01-19T03:40:15.743Z,23.17
2023-01-19T03:45:21.847Z,27.07
2023-01-19T03:50:27.770Z,24.50
2023-01-19T03:55:31.473Z,24.67
2023-01-19T04:00:37.005Z,33.40
2023-01-19T04:05:40.568Z,34.13
2023-01-19T04:10:44.217Z,21.27
2023-01-19T04:15:49.362Z,31.13
2023-01-19T04:20:53.123Z,21.03
2023-01-19T04:25:59.015Z,25.93
2023-01-19T04:31:04.661Z,23.83
2023-01-19T04:36:08.592Z,24.73
2023-01-19T04:41:11.995Z,29.20
2023-01-19T04:46:17.185Z,26.50
2023-01-19T04:51:20.577Z,21.57
2023-01-19T04:56:24.288Z,27.53
2023-01-19T05:01:29.502Z,29.53
2023-01-19T05:06:33.050Z,22.03
2023-01-19T05:11:36.493Z,30.67
2023-01-19T05:16:41.303Z,22.57
2023-01-19T05:21:44.709Z,26.27
2023-01-19T05:26:48.281Z,29.40
2023-01-19T05:31:53.458Z,27.03
2023-01-19T05:36:56.943Z,36.40
2023-01-19T05:42:00.643Z,26.17
2023-01-19T05:47:05.497Z,28.97
2023-01-19T05:52:09.022Z,25.80
2023-01-19T05:57:12.721Z,30.80
2023-01-19T06:02:17.527Z,20.57
2023-01-19T06:07:20.904Z,28.83
2023-01-19T06:12:24.597Z,35.23
2023-01-19T06:17:29.455Z,28.70
2023-01-19T06:22:32.843Z,21.77
2023-01-19T06:27:36.502Z,32.80
2023-01-19T06:32:41.298Z,26.90
2023-01-19T06:37:44.696Z,25.73
2023-01-19T06:42:50.029Z,27.93
2023-01-19T06:47:55.178Z,23.77
2023-01-19T06:52:58.902Z,27.80
2023-01-19T06:58:02.863Z,28.57
2023-01-19T07:03:09.567Z,32.47
2023-01-19T07:08:13.090Z,27.07
2023-01-19T07:13:16.817Z,35.33
2023-01-19T07:18:21.891Z,31.47
2023-01-19T07:23:25.699Z,32.47
2023-01-19T07:28:29.302Z,37.63
2023-01-19T07:33:34.097Z,28.40
2023-01-19T07:38:37.565Z,31.57
2023-01-19T07:43:41.027Z,23.30
2023-01-19T07:48:47.468Z,30.90
2023-01-19T07:53:52.126Z,22.57
2023-01-19T07:58:55.499Z,29.20
2023-01-19T08:04:00.591Z,33.17
2023-01-19T08:09:05.779Z,27.63
2023-01-19T08:14:09.542Z,38.97
2023-01-19T08:19:14.387Z,21.93
2023-01-19T08:24:21.474Z,25.80
2023-01-19T08:29:25.137Z,30.47
2023-01-19T08:34:31.047Z,29.13
2023-01-19T08:39:34.805Z,30.13
2023-01-19T08:44:46.717Z,35.27
2023-01-19T08:49:57.985Z,27.10
2023-01-19T08:55:01.680Z,27.73
2023-01-19T09:00:09.339Z,29.60
2023-01-19T09:05:14.648Z,34.27
2023-01-19T09:10:18.729Z,36.87
2023-01-19T09:15:22.123Z,34.93
2023-01-19T09:20:27.278Z,27.90
2023-01-19T09:25:30.665Z,27.00
2023-01-19T09:30:36.739Z,38.43
2023-01-19T09:35:42.708Z,25.03
2023-01-19T09:40:49.693Z,36.57
2023-01-19T09:45:57.068Z,28.47
2023-01-19T09:51:06.081Z,29.43
2023-01-19T09:56:14.519Z,33.67
2023-01-19T10:01:28.728Z,28.23
2023-01-19T10:06:33.755Z,34.53
2023-01-19T10:11:52.738Z,31.83
2023-01-19T10:17:05.569Z,28.43
2023-01-19T10:22:22.115Z,24.73
2023-01-19T10:27:30.612Z,28.87
2023-01-19T10:32:36.929Z,27.27
2023-01-19T10:37:42.164Z,27.93
2023-01-19T10:42:45.559Z,26.60
2023-01-19T10:47:50.225Z,20.37
2023-01-19T10:52:57.590Z,23.03
2023-01-19T10:58:01.077Z,30.33
2023-01-19T11:03:05.988Z,27.13
2023-01-19T11:08:24.500Z,21.37
2023-01-19T11:13:28.142Z,21.70
2023-01-19T11:18:34.318Z,22.00
2023-01-19T11:23:43.236Z,23.93
2023-01-19T11:28:51.475Z,33.87
2023-01-19T11:33:57.026Z,28.63
2023-01-19T11:39:21.841Z,18.43
2023-01-19T11:44:30.041Z,32.40
2023-01-19T11:49:43.584Z,20.53
2023-01-19T11:54:56.194Z,18.47
2023-01-19T12:00:03.648Z,28.53
2023-01-19T12:05:16.377Z,25.67
2023-01-19T12:10:27.135Z,31.20
2023-01-19T12:15:36.243Z,17.37
2023-01-19T12:20:44.525Z,29.03
2023-01-19T12:26:00.272Z,25.27
2023-01-19T12:31:05.150Z,23.87
2023-01-19T12:36:14.276Z,19.90
2023-01-19T12:41:27.027Z,25.27
2023-01-19T12:46:32.229Z,16.43
2023-01-19T12:51:35.720Z,19.87
2023-01-19T12:56:40.616Z,14.90
2023-01-19T13:01:44.371Z,23.50
2023-01-19T13:07:18.023Z,16.40
2023-01-19T13:12:25.483Z,17.13
2023-01-19T13:17:34.595Z,16.60
2023-01-19T13:23:20.044Z,20.33
2023-01-19T13:28:33.253Z,11.40
2023-01-19T13:33:55.960Z,22.40
2023-01-19T13:39:02.163Z,16.90
2023-01-19T13:44:14.283Z,13.07
2023-01-19T13:49:22.462Z,17.60
2023-01-19T13:54:27.151Z,15.57
2023-01-19T13:59:32.239Z,31.70
2023-01-19T14:04:35.615Z,15.23
2023-01-19T14:09:39.956Z,15.63
2023-01-19T14:14:46.841Z,16.57
2023-01-19T14:19:51.062Z,12.23
2023-01-19T14:24:54.739Z,11.23
2023-01-19T14:30:22.190Z,9.87
2023-01-19T14:35:26.861Z,12.43
2023-01-19T14:40:31.789Z,12.50
2023-01-19T14:45:39.393Z,13.33
2023-01-19T14:50:54.143Z,8.67
2023-01-19T14:56:04.585Z,9.80
2023-01-19T15:01:10.583Z,15.77
2023-01-19T15:06:16.637Z,20.73
2023-01-19T15:11:24.149Z,14.10
2023-01-19T15:16:30.947Z,10.97
2023-01-19T15:21:34.396Z,13.87
2023-01-19T15:26:39.477Z,12.53
2023-01-19T15:31:44.711Z,12.53
2023-01-19T15:36:48.163Z,9.90
2023-01-19T15:41:51.714Z,12.53
2023-01-19T15:46:57.458Z,8.20
2023-01-19T15:52:00.928Z,10.60
2023-01-19T15:57:04.529Z,9.30
2023-01-19T16:02:10.821Z,7.63
2023-01-19T16:07:14.405Z,11.90
2023-01-19T16:12:18.162Z,7.77
2023-01-19T16:17:22.990Z,12.67
2023-01-19T16:22:26.427Z,17.87
2023-01-19T16:27:30.349Z,11.77
2023-01-19T16:32:36.597Z,12.67
2023-01-19T16:37:40.363Z,15.33
2023-01-19T16:42:43.767Z,11.77
2023-01-19T16:47:50.723Z,9.17
2023-01-19T16:52:58.239Z,12.83
2023-01-19T16:58:01.945Z,7.60
2023-01-19T17:03:06.820Z,7.87
2023-01-19T17:08:10.809Z,9.87
2023-01-19T17:13:14.340Z,7.47
2023-01-19T17:18:19.499Z,9.37
2023-01-19T17:23:22.905Z,6.57
2023-01-19T17:28:26.829Z,6.73
2023-01-19T17:33:31.658Z,11.80
2023-01-19T17:38:35.433Z,4.30
2023-01-19T17:43:39.041Z,8.87
2023-01-19T17:48:44.080Z,7.83
2023-01-19T17:53:48.118Z,9.60
2023-01-19T17:58:52.361Z,9.07
2023-01-19T18:03:57.563Z,11.63
2023-01-19T18:09:01.277Z,9.00
2023-01-19T18:14:06.095Z,5.57
2023-01-19T18:19:11.461Z,12.70
2023-01-19T18:24:15.462Z,9.03
2023-01-19T18:29:26.565Z,11.30
2023-01-19T18:34:31.509Z,7.03
2023-01-19T18:39:35.613Z,8.40
2023-01-19T18:44:39.081Z,8.07
2023-01-19T18:49:44.443Z,10.07
2023-01-19T18:54:49.392Z,8.27
2023-01-19T18:59:53.677Z,10.40
2023-01-19T19:04:58.733Z,6.70
2023-01-19T19:10:02.282Z,13.10
2023-01-19T19:15:09.439Z,7.93
2023-01-19T19:20:15.288Z,10.87
2023-01-19T19:25:20.114Z,6.77
2023-01-19T19:30:23.789Z,11.93
2023-01-19T19:35:29.364Z,7.20
2023-01-19T19:40:32.832Z,7.07
2023-01-19T19:45:36.606Z,5.53
2023-01-19T19:50:41.536Z,4.23
2023-01-19T19:55:45.386Z,5.23
2023-01-19T20:00:48.926Z,9.73
2023-01-19T20:05:54.113Z,7.03
2023-01-19T20:11:06.257Z,7.13
2023-01-19T20:16:13.957Z,7.53
2023-01-19T20:21:20.736Z,7.03
2023-01-19T20:26:26.768Z,8.13
2023-01-19T20:31:31.868Z,5.87
2023-01-19T20:36:36.878Z,9.23
2023-01-19T20:41:45.116Z,6.60
2023-01-19T20:46:48.598Z,7.87
2023-01-19T20:51:54.202Z,5.87
2023-01-19T20:56:59.845Z,12.20
2023-01-19T21:02:03.321Z,7.70
2023-01-19T21:07:09.119Z,8.27
2023-01-19T21:12:13.454Z,5.10
2023-01-19T21:17:16.880Z,6.63
2023-01-19T21:22:21.820Z,7.13
2023-01-19T21:27:25.525Z,6.60
2023-01-19T21:32:29.442Z,6.97
2023-01-19T21:37:34.308Z,6.20
2023-01-19T21:42:37.774Z,9.20
2023-01-19T21:47:41.429Z,6.40
2023-01-19T21:52:47.009Z,13.27
2023-01-19T21:57:52.896Z,7.23
2023-01-19T22:03:03.753Z,13.97
2023-01-19T22:08:09.691Z,5.83
2023-01-19T22:13:13.259Z,8.33
2023-01-19T22:18:16.698Z,9.60
2023-01-19T22:23:21.504Z,8.90
2023-01-19T22:28:24.977Z,7.20
2023-01-19T22:33:30.128Z,9.77
2023-01-19T22:38:34.944Z,5.57
2023-01-19T22:43:38.699Z,7.83
2023-01-19T22:48:42.362Z,8.60
2023-01-19T22:53:47.607Z,6.73
2023-01-19T22:58:51.679Z,6.87
2023-01-19T23:03:55.673Z,7.87
2023-01-19T23:09:02.017Z,7.03
2023-01-19T23:14:07.077Z,6.17
2023-01-19T23:19:13.868Z,10.73
2023-01-19T23:24:19.020Z,12.47
2023-01-19T23:29:22.395Z,5.83
2023-01-19T23:34:25.790Z,9.00
2023-01-19T23:39:30.993Z,7.80
2023-01-19T23:44:34.620Z,9.77
2023-01-19T23:49:39.727Z,8.03
2023-01-19T23:54:45.078Z,7.77
2023-01-19T23:59:48.536Z,12.33
